Time;durP1;ratioP1;P1;durP2;ratioP2;P2;SDS_P1;SDS_P2;PMS_P1;PMS_P2;Temp;Humidity;BMP_temperature;BMP_pressure;BME280_temperature;BME280_humidity;BME280_pressure;Samples;Min_cycle;Max_cycle;Signal;HPM_P1;HPM_P2
2022/04/02 00:01:41;;;;;;;11.93;9.20;;;1.70;99.90;;;;;;5039133;28;20021;-80
2022/04/02 00:04:08;;;;;;;12.05;8.63;;;1.70;99.90;;;;;;5020333;28;20128;-80
2022/04/02 00:06:34;;;;;;;11.77;8.80;;;1.70;99.90;;;;;;5047985;28;20028;-80
2022/04/02 00:09:00;;;;;;;10.45;8.00;;;1.70;99.90;;;;;;5058829;28;20401;-80
2022/04/02 00:11:25;;;;;;;12.23;8.18;;;1.70;99.90;;;;;;5057655;28;20017;-80
2022/04/02 00:13:53;;;;;;;10.27;8.23;;;1.70;99.90;;;;;;5050660;22;20073;-79
2022/04/02 00:16:19;;;;;;;9.95;7.65;;;1.70;99.90;;;;;;5118238;28;20028;-81
2022/04/02 00:18:45;;;;;;;10.55;7.45;;;1.70;99.90;;;;;;5118307;28;20039;-80
2022/04/02 00:21:11;;;;;;;9.18;6.97;;;1.70;99.90;;;;;;5119112;28;20030;-79
2022/04/02 00:23:40;;;;;;;9.70;7.93;;;1.70;99.90;;;;;;5120215;27;20035;-80
2022/04/02 00:26:07;;;;;;;8.32;6.45;;;1.70;99.90;;;;;;5121568;27;20490;-81
2022/04/02 00:28:35;;;;;;;9.13;7.03;;;1.80;99.90;;;;;;5121297;27;20031;-81
2022/04/02 00:31:00;;;;;;;6.65;5.07;;;1.70;99.90;;;;;;5121298;27;20058;-81
2022/04/02 00:33:27;;;;;;;5.65;4.40;;;1.80;99.90;;;;;;5129389;27;20032;-80
2022/04/02 00:35:53;;;;;;;4.85;3.90;;;1.70;99.90;;;;;;5118820;28;20495;-80
2022/04/02 00:38:19;;;;;;;4.32;3.60;;;1.70;99.90;;;;;;5118052;28;20054;-79
2022/04/02 00:40:44;;;;;;;4.10;3.40;;;1.80;99.90;;;;;;5119013;28;20015;-80
2022/04/02 00:43:24;;;;;;;3.97;3.55;;;1.70;99.90;;;;;;5118571;28;20391;-80
2022/04/02 00:45:51;;;;;;;3.55;3.17;;;1.70;99.90;;;;;;5099280;28;20028;-79
2022/04/02 00:48:18;;;;;;;3.20;2.85;;;1.70;99.90;;;;;;5119095;27;20399;-80
2022/04/02 00:50:46;;;;;;;3.58;3.00;;;1.70;99.90;;;;;;5145435;27;20047;-81
2022/04/02 00:53:14;;;;;;;4.00;2.88;;;1.60;99.90;;;;;;5126659;27;20053;-80
2022/04/02 00:55:41;;;;;;;4.47;2.85;;;1.60;99.90;;;;;;5146294;27;20382;-80
2022/04/02 00:58:09;;;;;;;5.15;3.15;;;1.50;99.90;;;;;;5122796;27;20019;-80
2022/04/02 01:00:34;;;;;;;3.83;3.00;;;1.50;99.90;;;;;;5144956;27;20031;-80
2022/04/02 01:03:00;;;;;;;3.75;2.95;;;1.50;99.90;;;;;;5144445;27;20031;-80
2022/04/02 01:05:26;;;;;;;3.10;2.80;;;1.50;99.90;;;;;;5145655;27;20102;-80
2022/04/02 01:07:53;;;;;;;4.90;2.90;;;1.60;99.90;;;;;;5142671;27;20046;-80
2022/04/02 01:10:18;;;;;;;2.95;2.65;;;1.60;99.90;;;;;;5125803;28;20077;-80
2022/04/02 01:12:45;;;;;;;3.30;3.00;;;1.60;99.90;;;;;;5115950;28;20028;-80
2022/04/02 01:15:10;;;;;;;3.78;2.72;;;1.60;99.90;;;;;;5124941;28;20051;-80
2022/04/02 01:17:40;;;;;;;3.00;2.80;;;1.50;99.90;;;;;;5122510;28;20045;-80
2022/04/02 01:20:08;;;;;;;4.13;3.55;;;1.50;99.90;;;;;;5109781;28;20055;-80
2022/04/02 01:22:34;;;;;;;4.35;3.95;;;1.50;99.90;;;;;;5128491;28;20054;-78
2022/04/02 01:24:59;;;;;;;4.30;3.90;;;1.50;99.90;;;;;;5135850;27;20027;-80
2022/04/02 01:27:26;;;;;;;4.68;4.10;;;1.50;99.90;;;;;;5146172;27;20063;-80
2022/04/02 01:29:56;;;;;;;4.60;3.72;;;1.50;99.90;;;;;;5157838;27;20035;-81
2022/04/02 01:32:22;;;;;;;5.35;4.40;;;1.50;99.90;;;;;;5158907;27;20065;-81
2022/04/02 01:34:47;;;;;;;6.60;5.60;;;1.60;99.90;;;;;;5158973;27;20008;-81
2022/04/02 01:37:15;;;;;;;8.88;7.10;;;1.50;99.90;;;;;;5159379;27;20042;-81
2022/04/02 01:39:41;;;;;;;8.45;7.20;;;1.60;99.90;;;;;;5151349;27;20020;-81
2022/04/02 01:42:07;;;;;;;8.60;6.90;;;1.50;99.90;;;;;;5134578;27;20019;-79
2022/04/02 01:44:33;;;;;;;12.18;10.27;;;1.50;99.90;;;;;;5119290;28;20039;-81
2022/04/02 01:46:59;;;;;;;14.98;10.52;;;1.50;99.90;;;;;;5116871;28;20340;-80
2022/04/02 01:49:25;;;;;;;16.38;12.10;;;1.50;99.90;;;;;;5117467;28;20034;-81
2022/04/02 01:51:53;;;;;;;14.90;11.60;;;1.50;99.90;;;;;;5117775;28;20467;-80
2022/04/02 01:54:20;;;;;;;18.13;13.15;;;1.50;99.90;;;;;;5118262;28;20105;-80
2022/04/02 01:56:47;;;;;;;18.63;13.48;;;1.50;99.90;;;;;;5118704;28;20020;-80
2022/04/02 01:59:13;;;;;;;15.88;12.27;;;1.40;99.90;;;;;;5117419;28;20011;-81
2022/04/02 02:01:40;;;;;;;19.05;13.93;;;1.40;99.90;;;;;;5118249;27;20471;-81
2022/04/02 02:04:06;;;;;;;18.27;13.10;;;1.40;99.90;;;;;;5138857;27;20023;-81
2022/04/02 02:06:33;;;;;;;18.23;13.10;;;1.40;99.90;;;;;;5138872;27;20106;-80
2022/04/02 02:08:59;;;;;;;19.88;13.95;;;1.30;99.90;;;;;;5120446;27;20027;-80
2022/04/02 02:11:26;;;;;;;19.52;14.60;;;1.30;99.90;;;;;;5126032;27;20038;-80
2022/04/02 02:13:52;;;;;;;19.55;14.60;;;1.40;99.90;;;;;;5118158;28;20026;-80
2022/04/02 02:16:18;;;;;;;21.90;15.70;;;1.40;99.90;;;;;;5117708;28;20035;-80
2022/04/02 02:18:44;;;;;;;21.45;15.55;;;1.40;99.90;;;;;;5117284;28;20027;-81
2022/04/02 02:21:10;;;;;;;22.80;16.55;;;1.30;99.90;;;;;;5113314;28;20028;-80
2022/04/02 02:23:36;;;;;;;21.67;15.18;;;1.30;99.90;;;;;;5117710;28;20052;-80
2022/04/02 02:26:01;;;;;;;21.45;15.02;;;1.30;99.90;;;;;;5116564;28;20027;-80
2022/04/02 02:28:27;;;;;;;22.30;15.70;;;1.30;99.90;;;;;;5117155;28;20024;-80
2022/04/02 02:30:55;;;;;;;20.13;14.82;;;1.30;99.90;;;;;;5096910;28;20036;-80
2022/04/02 02:36:05;;;;;;;21.90;15.13;;;1.20;99.90;;;;;;5138104;28;20023;-80
2022/04/02 02:38:31;;;;;;;26.52;16.70;;;1.20;99.90;;;;;;5123013;28;20055;-80
2022/04/02 02:40:56;;;;;;;21.67;16.27;;;1.20;99.90;;;;;;5118464;28;20083;-79
2022/04/02 02:43:22;;;;;;;23.33;16.20;;;1.10;99.90;;;;;;5139336;28;20022;-79
2022/04/02 02:45:48;;;;;;;23.30;15.95;;;1.20;99.90;;;;;;5119677;28;20110;-80
2022/04/02 02:48:14;;;;;;;20.67;15.20;;;1.10;99.90;;;;;;5139005;28;20026;-80
2022/04/02 02:50:42;;;;;;;21.90;15.77;;;1.10;99.90;;;;;;5138992;28;20011;-80
2022/04/02 02:53:08;;;;;;;23.17;16.90;;;1.10;99.90;;;;;;5121581;28;20118;-80
2022/04/02 02:55:34;;;;;;;23.77;16.90;;;1.00;99.90;;;;;;5141343;28;20019;-81
2022/04/02 02:58:00;;;;;;;23.85;17.67;;;1.00;99.90;;;;;;5139005;28;20106;-81
2022/04/02 03:00:25;;;;;;;22.30;16.83;;;1.00;99.90;;;;;;5135006;28;20065;-80
2022/04/02 03:02:51;;;;;;;22.88;15.63;;;1.00;99.90;;;;;;5116213;28;20403;-80
2022/04/02 03:05:17;;;;;;;20.45;14.15;;;1.00;99.90;;;;;;5139259;28;20020;-80
2022/04/02 03:07:48;;;;;;;22.52;14.75;;;1.00;99.90;;;;;;5138070;28;20031;-81
2022/04/02 03:10:19;;;;;;;19.95;14.25;;;1.00;99.90;;;;;;5120044;28;20029;-81
2022/04/02 03:12:46;;;;;;;22.08;15.02;;;1.00;99.90;;;;;;5131505;28;20555;-81
2022/04/02 03:15:12;;;;;;;25.73;16.00;;;0.90;99.90;;;;;;5117399;28;20433;-81
2022/04/02 03:17:39;;;;;;;21.83;15.18;;;0.90;99.90;;;;;;5098785;28;20020;-80
2022/04/02 03:20:06;;;;;;;21.13;14.88;;;0.90;99.90;;;;;;5100476;28;20007;-81
2022/04/02 03:22:39;;;;;;;19.98;14.90;;;0.90;99.90;;;;;;5118862;28;20023;-81
2022/04/02 03:25:08;;;;;;;21.92;16.23;;;0.80;99.90;;;;;;5105131;28;20020;-81
2022/04/02 03:27:33;;;;;;;21.08;15.25;;;0.90;99.90;;;;;;5121734;28;20418;-80
2022/04/02 03:29:59;;;;;;;18.95;13.98;;;0.90;99.90;;;;;;5119232;28;20031;-81
2022/04/02 03:32:25;;;;;;;21.23;14.52;;;0.90;99.90;;;;;;5111080;28;20065;-81
2022/04/02 03:34:51;;;;;;;17.90;13.02;;;0.90;99.90;;;;;;5129551;27;20103;-80
2022/04/02 03:37:16;;;;;;;18.48;13.68;;;0.90;99.90;;;;;;5128217;27;20425;-80
2022/04/02 03:39:42;;;;;;;18.92;13.95;;;0.80;99.90;;;;;;5124103;28;20024;-80
2022/04/02 03:42:09;;;;;;;18.98;13.70;;;0.80;99.90;;;;;;5121495;28;20506;-79
2022/04/02 03:44:35;;;;;;;19.23;13.65;;;0.70;99.90;;;;;;5103461;28;20028;-80
2022/04/02 03:47:09;;;;;;;18.88;13.60;;;0.70;99.90;;;;;;5122782;28;20024;-80
2022/04/02 03:49:41;;;;;;;20.38;13.90;;;0.80;99.90;;;;;;5106917;28;20058;-79
2022/04/02 03:52:08;;;;;;;19.10;13.18;;;0.70;99.90;;;;;;5119592;28;20015;-78
2022/04/02 03:54:38;;;;;;;17.30;12.07;;;0.70;99.90;;;;;;5132234;27;20186;-79
2022/04/02 03:57:06;;;;;;;21.38;12.90;;;0.70;99.90;;;;;;5142719;27;20502;-79
2022/04/02 03:59:31;;;;;;;21.35;13.02;;;0.70;99.90;;;;;;5147447;27;20030;-78
2022/04/02 04:01:58;;;;;;;21.55;13.80;;;0.60;99.90;;;;;;5133965;27;20020;-79
2022/04/02 04:04:24;;;;;;;19.80;12.95;;;0.60;99.90;;;;;;5136001;28;20100;-80
2022/04/02 04:06:51;;;;;;;19.33;11.82;;;0.60;99.90;;;;;;5105356;28;20035;-80
2022/04/02 04:09:17;;;;;;;18.60;13.07;;;0.60;99.90;;;;;;5120480;28;20139;-79
2022/04/02 04:11:43;;;;;;;20.80;13.40;;;0.60;99.90;;;;;;5122142;28;20201;-81
2022/04/02 04:14:09;;;;;;;18.45;12.45;;;0.60;99.90;;;;;;5123352;27;20535;-81
2022/04/02 04:16:35;;;;;;;16.70;11.80;;;0.60;99.90;;;;;;5141864;27;20099;-81
2022/04/02 04:19:01;;;;;;;22.15;13.02;;;0.60;99.90;;;;;;5141245;27;20114;-80
2022/04/02 04:21:27;;;;;;;16.90;11.75;;;0.50;99.90;;;;;;5141315;27;20135;-81
2022/04/02 04:23:53;;;;;;;18.98;12.82;;;0.50;99.90;;;;;;5142239;27;20483;-80
2022/04/02 04:26:19;;;;;;;31.15;13.45;;;0.50;99.90;;;;;;5143670;27;20035;-81
2022/04/02 04:28:44;;;;;;;18.55;11.70;;;0.50;99.90;;;;;;5148926;27;20471;-81
2022/04/02 04:31:10;;;;;;;18.38;12.32;;;0.60;99.90;;;;;;5141592;27;20011;-80
2022/04/02 04:33:37;;;;;;;19.17;12.55;;;0.50;99.90;;;;;;5126511;28;20031;-81
2022/04/02 04:36:03;;;;;;;17.65;11.63;;;0.50;99.90;;;;;;5110058;28;20501;-81
2022/04/02 04:38:32;;;;;;;21.50;13.00;;;0.50;99.90;;;;;;5120767;28;20024;-79
2022/04/02 04:40:59;;;;;;;19.95;11.73;;;0.50;99.90;;;;;;5120105;28;20015;-80
2022/04/02 04:43:25;;;;;;;16.88;11.25;;;0.50;99.90;;;;;;5098566;28;20454;-81
2022/04/02 04:45:50;;;;;;;19.52;12.05;;;0.50;99.90;;;;;;5116133;27;20044;-81
2022/04/02 04:48:16;;;;;;;19.10;12.80;;;0.50;99.90;;;;;;5114077;28;20028;-81
2022/04/02 04:50:42;;;;;;;19.77;12.15;;;0.40;99.90;;;;;;5112654;28;20440;-81
2022/04/02 04:53:09;;;;;;;19.17;11.93;;;0.40;99.90;;;;;;5105812;28;20028;-81
2022/04/02 04:55:35;;;;;;;20.48;11.70;;;0.40;99.90;;;;;;5102635;27;20053;-81
2022/04/02 04:58:02;;;;;;;17.83;11.95;;;0.40;99.90;;;;;;5121616;27;20027;-81
2022/04/02 05:00:31;;;;;;;20.95;11.43;;;0.40;99.90;;;;;;5101819;28;20016;-80
2022/04/02 05:02:58;;;;;;;19.85;11.30;;;0.40;99.90;;;;;;5102071;28;20032;-80
2022/04/02 05:05:23;;;;;;;21.70;11.95;;;0.40;99.90;;;;;;5120409;28;20537;-80
2022/04/02 05:07:50;;;;;;;22.20;11.43;;;0.40;99.90;;;;;;5128420;27;20027;-80
2022/04/02 05:10:16;;;;;;;17.85;12.30;;;0.40;99.90;;;;;;5121574;28;20472;-80
2022/04/02 05:12:47;;;;;;;21.48;12.10;;;0.40;99.90;;;;;;5121839;28;20043;-80
2022/04/02 05:15:13;;;;;;;19.45;11.55;;;0.40;99.90;;;;;;5122945;28;20028;-81
2022/04/02 05:17:39;;;;;;;15.77;10.20;;;0.40;99.90;;;;;;5108607;28;20023;-81
2022/04/02 05:20:07;;;;;;;19.60;10.73;;;0.40;99.90;;;;;;5126872;28;20026;-81
2022/04/02 05:22:33;;;;;;;20.52;9.68;;;0.50;99.90;;;;;;5126942;28;20026;-81
2022/04/02 05:24:59;;;;;;;20.33;12.20;;;0.50;99.90;;;;;;5108121;28;20102;-81
2022/04/02 05:27:25;;;;;;;20.15;12.63;;;0.40;99.90;;;;;;5110052;27;20132;-82
2022/04/02 05:29:51;;;;;;;19.95;10.88;;;0.40;99.90;;;;;;5139301;27;20027;-81
2022/04/02 05:32:17;;;;;;;20.52;11.38;;;0.40;99.90;;;;;;5119663;28;20020;-83
2022/04/02 05:38:22;;;;;;;21.50;11.07;;;0.40;99.90;;;;;;5033575;27;20091;-80
2022/04/02 05:40:48;;;;;;;23.48;11.25;;;0.40;99.90;;;;;;5119710;27;20483;-81
2022/04/02 05:43:13;;;;;;;23.38;11.93;;;0.40;99.90;;;;;;5121016;27;20023;-80
2022/04/02 05:45:39;;;;;;;22.02;11.85;;;0.40;99.90;;;;;;5139806;27;20391;-81
2022/04/02 05:48:05;;;;;;;26.77;12.48;;;0.40;99.90;;;;;;5131549;27;20028;-81
2022/04/02 05:50:31;;;;;;;22.33;13.38;;;0.40;99.90;;;;;;5119204;28;20028;-80
2022/04/02 05:52:57;;;;;;;22.42;13.55;;;0.40;99.90;;;;;;5118702;28;20543;-82
2022/04/02 05:55:23;;;;;;;20.70;13.05;;;0.40;99.90;;;;;;5101780;28;20043;-80
2022/04/02 05:57:49;;;;;;;24.35;12.73;;;0.50;99.90;;;;;;5105220;27;20610;-79
2022/04/02 06:00:17;;;;;;;21.35;11.68;;;0.50;99.90;;;;;;5133551;27;20488;-80
2022/04/02 06:02:48;;;;;;;26.70;13.23;;;0.40;99.90;;;;;;5102496;27;20038;-81
2022/04/02 06:05:22;;;;;;;19.95;13.27;;;0.40;99.90;;;;;;5142296;27;20053;-82
2022/04/02 06:07:48;;;;;;;29.38;13.13;;;0.40;99.90;;;;;;5122709;27;20023;-81
2022/04/02 06:10:14;;;;;;;21.05;12.23;;;0.40;99.90;;;;;;5140558;27;20022;-79
2022/04/02 06:12:40;;;;;;;24.27;14.07;;;0.30;99.90;;;;;;5122681;28;20080;-82
2022/04/02 06:15:09;;;;;;;24.75;13.63;;;0.40;99.90;;;;;;5129906;27;20035;-80
2022/04/02 06:17:40;;;;;;;24.73;12.52;;;0.40;99.90;;;;;;5137799;27;20008;-79
2022/04/02 06:20:07;;;;;;;19.70;12.70;;;0.40;99.90;;;;;;5138307;27;20034;-81
2022/04/02 06:22:34;;;;;;;24.52;14.02;;;0.40;99.90;;;;;;5137569;27;20008;-79
2022/04/02 06:25:06;;;;;;;23.40;14.02;;;0.40;99.90;;;;;;5137819;27;20015;-80
2022/04/02 06:28:28;;;;;;;23.73;13.38;;;0.40;99.90;;;;;;5105512;28;20122;-82
2022/04/02 06:30:54;;;;;;;29.20;14.80;;;0.50;99.90;;;;;;5083330;28;20086;-82
2022/04/02 06:33:51;;;;;;;27.95;13.93;;;0.50;99.90;;;;;;5134423;28;20035;-80
2022/04/02 06:39:51;;;;;;;;;;;0.70;99.90;;;;;;5035531;28;20028;-80
2022/04/02 06:46:37;;;;;;;22.20;11.98;;;0.70;99.90;;;;;;5128665;28;20031;-82
2022/04/02 06:59:15;;;;;;;22.90;13.25;;;0.80;99.90;;;;;;5014465;28;20037;-80
2022/04/02 07:01:46;;;;;;;22.42;13.02;;;0.80;99.90;;;;;;5022091;28;20332;-82
2022/04/02 07:04:38;;;;;;;25.30;13.30;;;0.70;99.90;;;;;;5009648;28;20438;-82
2022/04/02 07:07:04;;;;;;;20.63;12.83;;;0.70;99.90;;;;;;5054494;28;20036;-82
2022/04/02 07:10:06;;;;;;;20.77;12.48;;;0.80;99.90;;;;;;5100831;28;20035;-81
2022/04/02 07:13:04;;;;;;;25.13;12.52;;;0.80;99.90;;;;;;5098480;28;20043;-82
2022/04/02 07:15:33;;;;;;;26.77;13.48;;;0.80;99.90;;;;;;5069609;28;20050;-85
2022/04/02 07:18:11;;;;;;;24.13;12.82;;;0.80;99.90;;;;;;5096947;28;20016;-80
2022/04/02 07:20:38;;;;;;;20.48;13.20;;;0.80;99.90;;;;;;5126221;27;20015;-81
2022/04/02 07:23:18;;;;;;;;;;;;;;;;;;;;;
2022/04/02 07:25:55;;;;;;;24.15;12.85;;;0.90;99.90;;;;;;5078980;28;20040;-83
2022/04/02 07:28:48;;;;;;;23.60;12.40;;;0.90;99.90;;;;;;5069120;28;20047;-84
2022/04/02 07:31:14;;;;;;;24.13;12.40;;;0.90;99.90;;;;;;5097072;27;20055;-81
2022/04/02 07:33:40;;;;;;;23.50;12.13;;;1.00;99.90;;;;;;5125692;28;20047;-82
2022/04/02 07:36:14;;;;;;;18.95;10.60;;;1.00;99.90;;;;;;5134863;28;20024;-82
2022/04/02 07:39:00;;;;;;;25.85;11.52;;;1.10;99.90;;;;;;5129859;28;20452;-82
2022/04/02 07:41:32;;;;;;;22.80;11.70;;;1.10;99.90;;;;;;5083436;27;20498;-81
2022/04/02 07:44:19;;;;;;;18.70;11.13;;;1.20;99.90;;;;;;5144066;27;20045;-82
2022/04/02 07:46:46;;;;;;;23.75;12.00;;;1.10;99.90;;;;;;5126020;27;20054;-81
2022/04/02 07:49:12;;;;;;;21.75;12.18;;;1.20;99.90;;;;;;5142870;27;20019;-82
2022/04/02 07:51:39;;;;;;;19.45;11.90;;;1.30;99.90;;;;;;5143854;27;20027;-81
2022/04/02 07:54:09;;;;;;;20.83;12.52;;;1.40;99.90;;;;;;5123571;27;20032;-82
2022/04/02 07:56:43;;;;;;;24.50;12.35;;;1.50;99.90;;;;;;5106824;28;20030;-82
2022/04/02 07:59:11;;;;;;;21.80;11.38;;;1.70;99.90;;;;;;5127735;28;20046;-82
2022/04/02 08:01:39;;;;;;;15.02;10.73;;;1.80;99.90;;;;;;5094553;28;20376;-81
2022/04/02 08:04:05;;;;;;;27.05;11.52;;;1.90;99.90;;;;;;5112620;28;20533;-81
2022/04/02 08:06:36;;;;;;;19.50;10.88;;;1.80;99.90;;;;;;5129487;28;20031;-81
2022/04/02 08:09:03;;;;;;;20.33;11.60;;;1.70;99.90;;;;;;5129220;28;20027;-82
2022/04/02 08:11:29;;;;;;;20.05;11.18;;;1.60;99.90;;;;;;5137881;27;20023;-82
2022/04/02 08:13:57;;;;;;;17.15;11.15;;;1.50;99.90;;;;;;5148246;27;20053;-82
2022/04/02 08:16:23;;;;;;;19.77;11.32;;;1.40;99.90;;;;;;5149543;27;20051;-81
2022/04/02 08:18:51;;;;;;;17.67;9.90;;;1.40;99.90;;;;;;5131023;27;20024;-82
2022/04/02 08:21:17;;;;;;;18.08;9.57;;;1.40;99.90;;;;;;5144393;27;20027;-82
2022/04/02 08:23:42;;;;;;;16.20;9.88;;;1.50;99.90;;;;;;5128169;28;20024;-81
2022/04/02 08:26:23;;;;;;;21.52;10.55;;;1.50;99.90;;;;;;5125606;28;20024;-82
2022/04/02 08:28:55;;;;;;;16.20;9.60;;;1.80;99.90;;;;;;5125140;28;20456;-82
2022/04/02 08:31:41;;;;;;;;;;;2.00;99.90;;;;;;5127321;27;20029;-82
2022/04/02 08:34:13;;;;;;;22.17;9.15;;;2.30;99.90;;;;;;5111015;28;20450;-81
2022/04/02 08:36:47;;;;;;;18.53;9.43;;;2.30;99.90;;;;;;5107190;28;20031;-81
2022/04/02 08:39:28;;;;;;;20.33;9.43;;;2.30;99.90;;;;;;5123978;28;20015;-81
2022/04/02 08:42:20;;;;;;;17.25;9.57;;;2.20;99.90;;;;;;5133215;27;20042;-81
2022/04/02 08:45:05;;;;;;;15.18;8.32;;;2.40;99.90;;;;;;5113606;28;20123;-81
2022/04/02 08:47:52;;;;;;;19.35;8.43;;;2.60;99.90;;;;;;5119941;28;20031;-81
2022/04/02 08:50:24;;;;;;;19.27;9.55;;;2.50;99.90;;;;;;5121165;28;20024;-80
2022/04/02 08:52:52;;;;;;;17.48;11.07;;;2.40;99.90;;;;;;5124262;28;20093;-80
2022/04/02 08:55:24;;;;;;;18.02;9.25;;;2.10;99.90;;;;;;5104833;28;20047;-81
2022/04/02 08:58:01;;;;;;;17.70;8.30;;;2.10;99.90;;;;;;5122675;28;20549;-82
2022/04/02 09:00:27;;;;;;;18.38;8.73;;;2.00;99.90;;;;;;5122207;28;20027;-82
2022/04/02 09:03:20;;;;;;;18.77;9.55;;;2.00;99.90;;;;;;5129492;27;20026;-82
2022/04/02 09:06:11;;;;;;;15.55;9.35;;;2.10;99.90;;;;;;5101902;28;20024;-82
2022/04/02 09:09:00;;;;;;;21.17;9.43;;;2.60;99.90;;;;;;5103849;28;20066;-82
2022/04/02 09:11:44;;;;;;;19.70;8.43;;;3.10;99.90;;;;;;5103933;28;20039;-82
2022/04/02 09:14:28;;;;;;;14.63;8.18;;;3.40;99.90;;;;;;5111956;27;20031;-82
2022/04/02 09:17:03;;;;;;;13.23;8.27;;;3.60;99.90;;;;;;5140761;27;20551;-81
2022/04/02 09:19:51;;;;;;;16.45;7.80;;;3.70;99.90;;;;;;5139895;27;20030;-81
2022/04/02 09:23:06;;;;;;;18.33;7.60;;;3.90;98.60;;;;;;5141075;27;20118;-81
2022/04/02 09:25:41;;;;;;;15.77;7.68;;;3.60;99.00;;;;;;5106437;28;20365;-81
2022/04/02 09:28:33;;;;;;;11.70;7.28;;;3.20;99.30;;;;;;5091693;28;20031;-81
2022/04/02 09:31:10;;;;;;;11.93;7.93;;;2.80;99.90;;;;;;5112003;28;20050;-81
2022/04/02 09:33:57;;;;;;;13.73;7.03;;;2.60;99.90;;;;;;5127863;28;20115;-82
2022/04/02 09:36:41;;;;;;;12.43;7.53;;;2.40;99.90;;;;;;5124484;28;20032;-82
2022/04/02 09:39:35;;;;;;;14.57;7.57;;;2.20;99.90;;;;;;5121940;28;20024;-82
2022/04/02 09:42:27;;;;;;;10.98;7.68;;;2.10;99.90;;;;;;5121848;28;20027;-81
2022/04/02 09:45:09;;;;;;;11.17;7.87;;;2.10;99.90;;;;;;5108300;27;20111;-82
2022/04/02 09:48:01;;;;;;;11.70;7.90;;;2.10;99.90;;;;;;5122276;28;20648;-81
2022/04/02 09:50:29;;;;;;;14.30;7.78;;;2.10;99.90;;;;;;5122564;28;20059;-83
2022/04/02 09:53:14;;;;;;;12.35;7.72;;;2.10;99.90;;;;;;5104481;28;20065;-82
2022/04/02 09:56:28;;;;;;;10.48;8.13;;;2.00;99.90;;;;;;5121410;27;20023;-82
2022/04/02 09:59:03;;;;;;;13.68;8.40;;;2.00;99.90;;;;;;5101486;27;20046;-81
2022/04/02 10:01:49;;;;;;;15.70;8.25;;;2.00;99.90;;;;;;5131639;27;20016;-81
2022/04/02 10:04:53;;;;;;;13.70;8.43;;;2.00;99.90;;;;;;5118209;27;20023;-82
2022/04/02 10:07:56;;;;;;;11.23;7.82;;;2.00;99.90;;;;;;5123993;27;20042;-82
2022/04/02 10:10:28;;;;;;;17.83;8.20;;;2.00;99.90;;;;;;5142335;27;20031;-82
2022/04/02 10:12:56;;;;;;;16.65;8.60;;;2.00;99.90;;;;;;5127743;27;20076;-82
2022/04/02 10:15:25;;;;;;;18.98;9.30;;;2.00;99.90;;;;;;5123193;28;20404;-82
2022/04/02 10:17:53;;;;;;;12.25;8.65;;;2.10;99.90;;;;;;5122542;28;20027;-81
2022/04/02 10:20:21;;;;;;;21.80;8.50;;;2.10;99.90;;;;;;5122545;28;20031;-82
2022/04/02 10:22:52;;;;;;;17.05;9.25;;;2.30;99.90;;;;;;5123243;28;20147;-82
2022/04/02 10:25:19;;;;;;;17.40;9.38;;;2.30;99.90;;;;;;5122861;28;20046;-79
2022/04/02 10:27:45;;;;;;;13.75;8.27;;;2.30;99.90;;;;;;5124161;28;20019;-80
2022/04/02 10:30:15;;;;;;;15.88;9.27;;;2.20;99.90;;;;;;5104827;28;20034;-81
2022/04/02 10:32:53;;;;;;;16.17;9.25;;;2.20;99.90;;;;;;5124595;28;20116;-81
2022/04/02 10:35:24;;;;;;;17.05;8.82;;;2.20;99.90;;;;;;5127453;28;20020;-82
2022/04/02 10:38:17;;;;;;;20.00;9.00;;;2.20;99.90;;;;;;5109686;28;20047;-81
2022/04/02 10:40:42;;;;;;;;;;;2.30;99.90;;;;;;5111085;28;20083;-81
2022/04/02 10:43:15;;;;;;;15.27;9.13;;;2.30;99.90;;;;;;5117246;27;20416;-81
2022/04/02 10:45:40;;;;;;;20.25;9.23;;;2.40;99.90;;;;;;5148424;27;20027;-81
2022/04/02 10:48:12;;;;;;;16.67;9.85;;;2.40;99.90;;;;;;5133087;27;20066;-81
2022/04/02 10:50:40;;;;;;;13.35;9.40;;;2.40;99.90;;;;;;5162401;27;20027;-81
2022/04/02 10:53:10;;;;;;;19.95;10.13;;;2.40;99.90;;;;;;5163241;27;20023;-82
2022/04/02 10:55:43;;;;;;;14.77;8.68;;;2.40;99.90;;;;;;5162680;27;20053;-82
2022/04/02 10:58:11;;;;;;;17.52;8.55;;;2.60;99.90;;;;;;5143460;27;20011;-82
2022/04/02 11:00:39;;;;;;;14.85;8.30;;;2.70;99.90;;;;;;5161353;27;20027;-82
2022/04/02 11:03:06;;;;;;;15.55;8.95;;;2.60;99.90;;;;;;5129874;27;20448;-84
2022/04/02 11:05:36;;;;;;;14.60;8.65;;;2.60;99.90;;;;;;5144821;27;20094;-83
2022/04/02 11:08:24;;;;;;;12.75;9.10;;;2.70;99.90;;;;;;5129754;27;20019;-83
2022/04/02 11:10:50;;;;;;;15.82;8.63;;;2.90;99.90;;;;;;5149033;27;20027;-83
2022/04/02 11:13:29;;;;;;;14.63;9.10;;;2.90;99.70;;;;;;5147823;27;20027;-83
2022/04/02 11:15:57;;;;;;;17.58;8.52;;;2.80;98.00;;;;;;5106509;28;20385;-83
2022/04/02 11:18:24;;;;;;;11.82;8.25;;;2.70;99.90;;;;;;5106119;28;20463;-82
2022/04/02 11:20:58;;;;;;;23.83;9.20;;;2.60;99.90;;;;;;5087346;28;20099;-83
2022/04/02 11:23:42;;;;;;;12.50;8.52;;;2.70;99.40;;;;;;5105927;28;20020;-82
2022/04/02 11:26:11;;;;;;;19.02;8.35;;;2.70;99.90;;;;;;5106402;28;20059;-83
2022/04/02 11:28:52;;;;;;;14.68;8.65;;;2.70;99.90;;;;;;5105165;28;20447;-82
2022/04/02 11:31:27;;;;;;;13.82;8.18;;;2.80;99.90;;;;;;5125613;28;20075;-83
2022/04/02 11:33:54;;;;;;;13.00;8.10;;;2.90;99.90;;;;;;5121145;28;20042;-83
2022/04/02 11:36:39;;;;;;;12.32;8.48;;;3.00;99.90;;;;;;5149636;27;20026;-81
2022/04/02 11:39:15;;;;;;;11.70;8.30;;;3.00;99.90;;;;;;5129728;27;20028;-81
2022/04/02 11:41:45;;;;;;;12.43;7.88;;;3.10;99.90;;;;;;5121986;28;20058;-82
2022/04/02 11:44:14;;;;;;;12.77;8.32;;;3.30;99.30;;;;;;5123244;28;20024;-82
2022/04/02 11:46:53;;;;;;;12.85;8.23;;;3.30;97.90;;;;;;5138426;27;20046;-81
2022/04/02 11:49:28;;;;;;;10.85;8.00;;;3.20;97.40;;;;;;5143090;27;20019;-82
2022/04/02 11:52:04;;;;;;;11.48;7.90;;;3.00;97.70;;;;;;5145749;27;20031;-81
2022/04/02 12:05:08;;;;;;;10.88;8.05;;;2.10;99.90;;;;;;5038525;28;20032;-82
2022/04/02 12:08:47;;;;;;;;;;;;;;;;;;;;;
2022/04/02 12:12:13;;;;;;;;;;;;;;;;;;;;;
2022/04/02 12:33:24;;;;;;;;;;;;;;;;;;;;;
2022/04/02 12:50:50;;;;;;;;;;;;;;;;;;;;;
2022/04/02 13:11:31;;;;;;;8.63;6.38;;;2.10;99.90;;;;;;4980343;28;20037;-82
2022/04/02 13:14:03;;;;;;;9.65;7.20;;;2.00;99.90;;;;;;4965903;28;20054;-82
2022/04/02 13:17:18;;;;;;;9.45;7.88;;;1.90;99.90;;;;;;5035683;28;20374;-83
2022/04/02 13:22:53;;;;;;;8.35;7.07;;;1.60;99.90;;;;;;5087919;28;20036;-82
2022/04/02 13:25:31;;;;;;;9.73;7.97;;;1.60;99.90;;;;;;5087009;28;20028;-82
2022/04/02 13:28:13;;;;;;;9.88;7.43;;;1.50;99.90;;;;;;5085755;28;20021;-82
2022/04/02 13:30:48;;;;;;;9.38;7.35;;;1.60;99.90;;;;;;5087256;28;20029;-83
2022/04/02 13:33:54;;;;;;;10.05;8.10;;;1.70;99.90;;;;;;5068837;28;20077;-82
2022/04/02 13:36:47;;;;;;;11.80;8.15;;;1.80;99.90;;;;;;5086395;28;20020;-82
2022/04/02 13:39:24;;;;;;;13.75;7.95;;;1.90;99.90;;;;;;5086498;28;20480;-83
2022/04/02 13:42:23;;;;;;;11.25;7.47;;;1.80;99.90;;;;;;5086376;28;20024;-83
2022/04/02 13:44:54;;;;;;;8.30;6.60;;;1.70;99.90;;;;;;5084529;28;20036;-83
2022/04/02 13:47:24;;;;;;;11.20;7.27;;;1.70;99.90;;;;;;5087108;28;20055;-83
2022/04/02 13:49:58;;;;;;;7.93;6.65;;;1.70;99.90;;;;;;5086848;28;20080;-84
2022/04/02 13:52:53;;;;;;;10.30;7.18;;;1.70;99.90;;;;;;5086049;28;20009;-83
2022/04/02 13:55:27;;;;;;;9.13;7.03;;;1.70;99.90;;;;;;5050575;28;20063;-82
2022/04/02 13:57:54;;;;;;;9.95;7.05;;;1.70;99.90;;;;;;5067986;28;20032;-82
2022/04/02 14:00:26;;;;;;;8.45;7.28;;;1.70;99.90;;;;;;5067813;28;20020;-82
2022/04/02 14:02:59;;;;;;;12.18;6.10;;;1.60;99.90;;;;;;5051259;28;20043;-83
2022/04/02 14:05:25;;;;;;;;;;;1.50;99.90;;;;;;5050349;28;20144;-82
2022/04/02 14:08:14;;;;;;;9.93;6.65;;;1.50;99.90;;;;;;5084712;28;19908;-82
2022/04/02 14:15:03;;;;;;;8.63;6.43;;;1.50;99.90;;;;;;5067838;28;20059;-82
2022/04/02 14:17:31;;;;;;;9.20;7.03;;;1.40;99.90;;;;;;5084087;28;20074;-82
2022/04/02 14:20:05;;;;;;;9.02;6.70;;;1.40;99.90;;;;;;5068585;28;20033;-82
2022/04/02 14:22:38;;;;;;;9.55;7.07;;;1.40;99.90;;;;;;5104065;28;20039;-81
2022/04/02 14:25:48;;;;;;;7.63;6.30;;;1.30;99.90;;;;;;5103848;28;20369;-82
2022/04/02 14:28:32;;;;;;;8.82;6.13;;;1.10;99.90;;;;;;5006518;28;20053;-82
2022/04/02 14:31:16;;;;;;;9.35;6.25;;;1.10;99.90;;;;;;5003027;28;20038;-83
2022/04/02 14:34:01;;;;;;;8.15;6.63;;;1.10;99.90;;;;;;5045757;28;20043;-82
2022/04/02 14:36:30;;;;;;;8.60;6.40;;;1.20;99.90;;;;;;5047289;28;20022;-82
2022/04/02 14:39:22;;;;;;;9.32;7.20;;;1.40;99.90;;;;;;5065329;28;20096;-82
2022/04/02 14:41:57;;;;;;;;;;;1.50;99.90;;;;;;5090140;28;20017;-83
2022/04/02 14:44:49;;;;;;;13.23;6.88;;;1.50;99.90;;;;;;5096749;28;19896;-82
2022/04/02 15:54:53;;;;;;;10.18;5.85;;;0.60;99.90;;;;;;5072006;22;20092;-83
2022/04/02 15:57:19;;;;;;;9.60;7.00;;;0.70;99.90;;;;;;5121616;28;20373;-83
2022/04/02 15:59:44;;;;;;;8.15;6.63;;;0.60;99.90;;;;;;5121464;28;20034;-81